Time;durP1;ratioP1;P1;durP2;ratioP2;P2;SDS_P1;SDS_P2;PMS_P1;PMS_P2;Temp;Humidity;BMP_temperature;BMP_pressure;BME280_temperature;BME280_humidity;BME280_pressure;Samples;Min_cycle;Max_cycle;Signal;HPM_P1;HPM_P2
2023/10/17 00:01:13;;;;;;;7.97;4.57;;;;;;;9.36;100.00;101899.25;5228794;28;20021;-79
2023/10/17 00:03:45;;;;;;;9.67;4.70;;;;;;;9.42;100.00;101909.50;5228805;28;20029;-79
2023/10/17 00:06:17;;;;;;;9.90;4.63;;;;;;;9.40;100.00;101937.47;5227794;28;20029;-79
2023/10/17 00:08:51;;;;;;;8.80;4.43;;;;;;;9.08;100.00;101901.13;5228547;28;20235;-79
2023/10/17 00:11:29;;;;;;;8.25;4.97;;;;;;;9.22;100.00;101898.91;5227225;28;20515;-79
2023/10/17 00:14:08;;;;;;;7.90;4.63;;;;;;;9.48;100.00;101929.31;5228217;28;20309;-79
2023/10/17 00:16:40;;;;;;;7.57;4.63;;;;;;;9.50;100.00;101939.72;5228768;28;20037;-79
2023/10/17 00:19:12;;;;;;;6.83;4.93;;;;;;;9.32;100.00;101902.88;5228684;28;20110;-80
2023/10/17 00:21:49;;;;;;;6.70;4.37;;;;;;;9.30;100.00;101918.63;5227776;28;20021;-80
2023/10/17 00:24:20;;;;;;;7.60;4.47;;;;;;;9.06;100.00;101865.50;5228439;28;20411;-80
2023/10/17 00:26:51;;;;;;;7.50;4.80;;;;;;;9.37;100.00;101898.34;5227872;28;20025;-79
2023/10/17 00:29:23;;;;;;;9.33;4.97;;;;;;;9.14;100.00;101881.78;5243358;28;20451;-79
2023/10/17 00:31:55;;;;;;;9.83;5.33;;;;;;;9.04;100.00;101896.91;5227800;28;20049;-79
2023/10/17 00:34:27;;;;;;;6.47;4.40;;;;;;;8.85;100.00;101857.53;5242931;28;20232;-79
2023/10/17 00:37:10;;;;;;;10.17;4.13;;;;;;;9.43;100.00;101921.66;5227017;28;20135;-79
2023/10/17 00:39:42;;;;;;;9.13;4.37;;;;;;;9.12;100.00;101880.09;5243974;28;20017;-79
2023/10/17 00:42:28;;;;;;;6.90;4.43;;;;;;;9.31;100.00;101907.28;5242725;28;20284;-79
2023/10/17 00:45:00;;;;;;;7.87;4.83;;;;;;;9.12;100.00;101844.38;5242946;28;20071;-79
2023/10/17 00:47:32;;;;;;;9.80;4.40;;;;;;;9.00;100.00;101853.53;5231965;28;20018;-79
2023/10/17 00:50:12;;;;;;;7.27;4.67;;;;;;;9.18;100.00;101866.81;5229897;28;20018;-79
2023/10/17 00:52:44;;;;;;;9.27;4.60;;;;;;;8.93;100.00;101860.75;5247226;28;20477;-79
2023/10/17 00:55:18;;;;;;;9.13;4.60;;;;;;;9.11;100.00;101887.09;5247573;28;20029;-80
2023/10/17 00:57:50;;;;;;;6.47;4.97;;;;;;;9.01;100.00;101881.34;5231667;28;20025;-80
2023/10/17 01:00:41;;;;;;;10.33;4.93;;;;;;;8.95;100.00;101853.69;5232030;28;20028;-80
2023/10/17 01:03:13;;;;;;;7.33;4.40;;;;;;;9.27;100.00;101878.66;5231751;28;20017;-80
2023/10/17 01:06:00;;;;;;;8.13;5.03;;;;;;;9.36;100.00;101873.09;5231174;28;20045;-79
2023/10/17 01:08:44;;;;;;;7.83;4.80;;;;;;;9.31;100.00;101895.97;5247151;28;20275;-80
2023/10/17 01:11:23;;;;;;;9.63;4.80;;;;;;;9.40;100.00;101916.53;5231466;28;20484;-80
2023/10/17 01:13:54;;;;;;;10.90;5.07;;;;;;;9.05;100.00;101875.13;5214558;28;20435;-80
2023/10/17 01:16:26;;;;;;;9.57;4.97;;;;;;;9.05;100.00;101884.72;5210460;28;20405;-80
2023/10/17 01:19:00;;;;;;;7.83;5.37;;;;;;;8.92;100.00;101874.69;5211255;28;20021;-79
2023/10/17 01:21:32;;;;;;;9.15;5.57;;;;;;;8.99;100.00;101874.50;5210604;28;20393;-79
2023/10/17 01:24:03;;;;;;;15.77;5.57;;;;;;;8.99;100.00;101890.16;5208898;28;20030;-79
2023/10/17 01:26:38;;;;;;;10.20;5.40;;;;;;;9.01;100.00;101885.72;5225932;28;20030;-79
2023/10/17 01:29:12;;;;;;;9.50;5.38;;;;;;;9.02;100.00;101879.59;5217966;28;20029;-80
2023/10/17 01:31:43;;;;;;;11.40;5.85;;;;;;;9.10;100.00;101882.78;5231681;28;20221;-80
2023/10/17 01:34:15;;;;;;;7.90;5.37;;;;;;;9.20;100.00;101894.59;5229722;28;20025;-79
2023/10/17 01:36:46;;;;;;;7.97;5.10;;;;;;;8.94;100.00;101862.44;5231492;28;20535;-79
2023/10/17 01:39:20;;;;;;;9.17;5.43;;;;;;;8.88;100.00;101851.38;5230924;28;20521;-79
2023/10/17 01:41:52;;;;;;;8.70;5.07;;;;;;;9.00;100.00;101869.22;5231342;28;20484;-79
2023/10/17 01:44:24;;;;;;;6.77;5.30;;;;;;;8.86;100.00;101872.31;5231314;28;20022;-79
2023/10/17 01:46:55;;;;;;;6.30;5.30;;;;;;;8.89;100.00;101864.38;5230720;28;20415;-79
2023/10/17 01:49:27;;;;;;;8.53;5.53;;;;;;;8.98;100.00;101857.09;5245351;28;20029;-79
2023/10/17 01:51:59;;;;;;;7.67;5.10;;;;;;;8.89;100.00;101822.56;5230115;28;20149;-79
2023/10/17 01:54:31;;;;;;;13.23;5.83;;;;;;;9.08;100.00;101874.13;5230986;28;20032;-79
2023/10/17 01:57:06;;;;;;;6.97;5.00;;;;;;;8.67;100.00;101814.66;5230608;28;20083;-79
2023/10/17 01:59:38;;;;;;;10.37;5.70;;;;;;;8.88;100.00;101844.38;5244050;28;20018;-79
2023/10/17 02:02:09;;;;;;;11.10;5.70;;;;;;;8.87;100.00;101840.06;5243050;28;20196;-79
2023/10/17 02:04:41;;;;;;;9.80;5.50;;;;;;;9.04;100.00;101852.50;5241831;28;20098;-79
2023/10/17 02:07:12;;;;;;;9.23;5.17;;;;;;;8.79;100.00;101821.19;5240380;28;20162;-78
2023/10/17 02:12:16;;;;;;;9.27;4.93;;;;;;;8.81;100.00;101825.44;5234993;28;20400;-79
2023/10/17 02:14:47;;;;;;;8.00;5.10;;;;;;;9.03;100.00;101860.38;5230738;28;20190;-80
2023/10/17 02:17:19;;;;;;;8.00;4.97;;;;;;;8.86;100.00;101812.25;5229153;28;20064;-80
2023/10/17 02:19:53;;;;;;;8.73;5.70;;;;;;;8.70;100.00;101786.69;5229809;28;20412;-80
2023/10/17 02:22:25;;;;;;;9.85;5.40;;;;;;;8.77;100.00;101802.13;5230250;28;20025;-80
2023/10/17 02:24:57;;;;;;;9.90;5.23;;;;;;;8.51;100.00;101765.59;5229733;28;20025;-80
2023/10/17 02:27:29;;;;;;;13.70;5.83;;;;;;;8.73;100.00;101800.53;5229822;28;20024;-80
2023/10/17 02:30:03;;;;;;;7.87;5.93;;;;;;;8.78;100.00;101822.13;5230490;28;20021;-80
2023/10/17 02:32:35;;;;;;;8.98;5.20;;;;;;;8.77;100.00;101810.81;5229634;28;20115;-81
2023/10/17 02:35:07;;;;;;;10.70;5.77;;;;;;;8.62;100.00;101812.22;5229583;28;20530;-80
2023/10/17 02:37:43;;;;;;;8.37;5.07;;;;;;;8.66;100.00;101819.03;5228293;28;20044;-80
2023/10/17 02:40:20;;;;;;;11.80;5.73;;;;;;;8.98;100.00;101864.94;5245518;28;20112;-80
2023/10/17 02:42:52;;;;;;;9.57;5.23;;;;;;;8.68;100.00;101796.31;5244988;28;20128;-80
2023/10/17 02:45:26;;;;;;;8.87;5.43;;;;;;;8.60;100.00;101800.97;5230220;28;20025;-80
2023/10/17 02:48:06;;;;;;;10.25;5.43;;;;;;;8.71;100.00;101832.78;5229649;28;20028;-80
2023/10/17 02:53:14;;;;;;;9.18;5.05;;;;;;;8.60;100.00;101806.22;5229242;28;20099;-80
2023/10/17 02:55:45;;;;;;;5.88;4.90;;;;;;;8.75;100.00;101811.75;5230285;28;20020;-80
2023/10/17 02:58:16;;;;;;;11.00;6.27;;;;;;;8.64;100.00;101809.56;5229557;28;20029;-80
2023/10/17 03:00:48;;;;;;;9.83;6.13;;;;;;;8.53;100.00;101799.47;5229667;28;20993;-80
2023/10/17 03:03:19;;;;;;;8.90;5.83;;;;;;;8.52;100.00;101769.06;5244819;28;20116;-80
2023/10/17 03:05:51;;;;;;;9.50;6.80;;;;;;;9.02;100.00;101843.03;5228648;28;20484;-80
2023/10/17 03:08:22;;;;;;;11.43;6.00;;;;;;;8.82;100.00;101821.94;5229222;28;20226;-80
2023/10/17 03:10:59;;;;;;;8.77;6.00;;;;;;;8.71;100.00;101788.38;5244366;28;20080;-80
2023/10/17 03:13:40;;;;;;;10.20;6.33;;;;;;;8.97;100.00;101832.75;5229866;28;20060;-80
2023/10/17 03:16:24;;;;;;;9.87;6.20;;;;;;;8.47;100.00;101811.84;5229257;28;20504;-80
2023/10/17 03:18:58;;;;;;;12.17;7.20;;;;;;;8.61;100.00;101801.81;5229342;28;20026;-80
2023/10/17 03:21:33;;;;;;;12.95;6.82;;;;;;;8.51;100.00;101790.81;5229075;28;20528;-80
2023/10/17 03:24:05;;;;;;;16.90;7.30;;;;;;;8.50;100.00;101795.19;5228146;28;20571;-80
2023/10/17 03:26:39;;;;;;;9.80;6.60;;;;;;;8.65;100.00;101811.25;5227435;28;20056;-80
2023/10/17 03:29:14;;;;;;;14.30;7.15;;;;;;;8.52;100.00;101782.94;5228990;28;20055;-80
2023/10/17 03:31:48;;;;;;;11.35;7.03;;;;;;;8.68;100.00;101837.25;5228880;28;20480;-80
2023/10/17 03:34:34;;;;;;;11.43;7.80;;;;;;;8.58;100.00;101829.75;5228146;28;20029;-80
2023/10/17 03:40:15;;;;;;;12.00;6.83;;;;;;;8.70;100.00;101812.81;5228994;28;20037;-80
2023/10/17 03:42:53;;;;;;;13.10;6.40;;;;;;;8.41;100.00;101785.94;5229096;28;20028;-80
2023/10/17 03:45:27;;;;;;;11.87;7.40;;;;;;;8.60;100.00;101800.97;5243451;28;20120;-80
2023/10/17 03:47:59;;;;;;;11.60;8.13;;;;;;;8.59;100.00;101836.69;5228706;28;20362;-80
2023/10/17 03:50:31;;;;;;;11.23;7.87;;;;;;;8.73;100.00;101850.16;5227190;28;20203;-80
2023/10/17 03:53:07;;;;;;;10.83;7.17;;;;;;;8.50;100.00;101802.19;5228778;28;20554;-80
2023/10/17 03:55:42;;;;;;;10.93;7.57;;;;;;;8.50;100.00;101815.25;5226877;28;20025;-80
2023/10/17 04:00:59;;;;;;;12.53;7.73;;;;;;;8.71;100.00;101840.63;5228306;28;20065;-80
2023/10/17 04:03:30;;;;;;;11.27;7.70;;;;;;;8.53;100.00;101825.56;5228640;28;20025;-80
2023/10/17 04:08:49;;;;;;;14.77;7.90;;;;;;;8.46;100.00;101804.91;5228476;28;20132;-80
2023/10/17 04:14:00;;;;;;;11.25;7.53;;;;;;;8.67;100.00;101833.81;5228825;28;20028;-80
2023/10/17 04:16:34;;;;;;;14.87;8.50;;;;;;;8.57;100.00;101822.00;5228108;28;20033;-80
2023/10/17 04:19:16;;;;;;;11.77;8.90;;;;;;;8.56;100.00;101810.69;5227361;28;20033;-80
2023/10/17 04:22:02;;;;;;;13.37;8.70;;;;;;;8.82;100.00;101847.22;5226132;28;20033;-80
2023/10/17 04:24:34;;;;;;;17.57;8.90;;;;;;;8.37;100.00;101786.09;5228439;28;20025;-80
2023/10/17 04:27:19;;;;;;;11.23;8.77;;;;;;;8.64;100.00;101849.56;5242874;28;20076;-79
2023/10/17 04:29:50;;;;;;;15.60;9.13;;;;;;;8.65;100.00;101845.19;5227070;28;20068;-79
2023/10/17 04:32:26;;;;;;;13.27;8.87;;;;;;;8.16;100.00;101794.63;5226802;28;20101;-80
2023/10/17 04:34:57;;;;;;;12.20;8.93;;;;;;;8.38;100.00;101813.91;5227307;28;20022;-80
2023/10/17 04:37:32;;;;;;;10.93;8.93;;;;;;;8.63;100.00;101839.19;5226624;28;20404;-80
2023/10/17 04:45:28;;;;;;;20.17;11.23;;;;;;;8.32;100.00;101807.16;5228121;28;20370;-79
2023/10/17 04:48:12;;;;;;;14.90;10.53;;;;;;;8.57;100.00;101850.72;5227175;28;20111;-79
2023/10/17 04:50:55;;;;;;;15.77;10.20;;;;;;;8.27;100.00;101807.31;5225414;28;20022;-79
2023/10/17 04:53:35;;;;;;;15.83;9.83;;;;;;;8.40;100.00;101826.00;5227731;28;20487;-79
2023/10/17 04:56:11;;;;;;;15.30;10.23;;;;;;;8.26;100.00;101808.22;5227243;28;20029;-79
2023/10/17 05:01:41;;;;;;;18.97;11.10;;;;;;;8.67;100.00;101859.06;5227077;28;20117;-79
2023/10/17 05:04:19;;;;;;;13.82;9.55;;;;;;;8.34;100.00;101792.28;5241983;28;20079;-79
2023/10/17 06:17:48;;;;;;;16.60;11.37;;;;;;;8.31;100.00;101780.19;5231020;28;20081;-79
2023/10/17 06:20:43;;;;;;;16.37;11.67;;;;;;;8.30;100.00;101777.63;5229101;28;20533;-80
2023/10/17 06:23:23;;;;;;;16.03;11.37;;;;;;;8.20;100.00;101775.34;5230091;28;20030;-80
2023/10/17 06:26:22;;;;;;;15.50;12.10;;;;;;;8.38;100.00;101804.31;5230719;28;20029;-80
2023/10/17 06:30:05;;;;;;;21.33;13.43;;;;;;;8.20;100.00;101787.56;5229966;28;20025;-79
2023/10/17 06:34:23;;;;;;;13.47;12.07;;;;;;;8.55;100.00;101849.88;5228928;28;20033;-81
2023/10/17 06:37:07;;;;;;;18.13;12.90;;;;;;;8.06;100.00;101772.38;5229938;28;20033;-81
2023/10/17 06:39:45;;;;;;;21.70;13.03;;;;;;;8.30;100.00;101806.34;5245642;28;20045;-79
2023/10/17 06:42:27;;;;;;;16.17;12.97;;;;;;;8.33;100.00;101801.88;5229517;28;20732;-79
2023/10/17 06:45:07;;;;;;;13.77;12.23;;;;;;;8.32;100.00;101817.59;5229255;28;20029;-79
2023/10/17 06:47:41;;;;;;;18.13;13.23;;;;;;;8.40;100.00;101812.94;5230049;28;20465;-79
2023/10/17 06:55:43;;;;;;;16.10;12.30;;;;;;;8.26;100.00;101784.72;5229935;28;20041;-81
2023/10/17 06:58:15;;;;;;;19.33;13.70;;;;;;;8.28;100.00;101795.97;5229366;28;20406;-80
2023/10/17 07:00:52;;;;;;;18.30;13.50;;;;;;;8.48;100.00;101825.75;5228087;28;20056;-81
2023/10/17 07:03:28;;;;;;;16.73;13.47;;;;;;;8.33;100.00;101819.28;5235910;28;20075;-78
2023/10/17 07:06:11;;;;;;;17.27;12.77;;;;;;;8.39;100.00;101816.47;5255618;28;20030;-80
2023/10/17 07:08:45;;;;;;;16.10;13.27;;;;;;;8.47;100.00;101832.72;5234968;28;20068;-78
2023/10/17 07:14:10;;;;;;;20.03;13.53;;;;;;;8.76;100.00;101852.66;5234321;28;20559;-78
2023/10/17 07:16:41;;;;;;;16.03;13.13;;;;;;;8.76;100.00;101847.44;5229556;28;20052;-78
2023/10/17 07:22:05;;;;;;;17.17;13.90;;;;;;;8.67;100.00;101818.16;5229328;28;20040;-79
2023/10/17 07:24:36;;;;;;;15.07;12.37;;;;;;;8.40;100.00;101784.22;5229643;28;20477;-79
2023/10/17 07:27:18;;;;;;;15.63;12.53;;;;;;;8.76;100.00;101837.00;5228551;28;20044;-79
2023/10/17 07:30:00;;;;;;;15.57;12.70;;;;;;;8.50;100.00;101776.09;5228791;28;20061;-79
2023/10/17 07:32:44;;;;;;;19.50;12.37;;;;;;;8.69;100.00;101805.03;5229056;28;20029;-79
2023/10/17 07:35:16;;;;;;;17.52;12.55;;;;;;;8.76;100.00;101787.38;5242545;28;20040;-79
2023/10/17 07:38:06;;;;;;;14.83;12.00;;;;;;;8.76;100.00;101813.47;5229191;28;20017;-79
2023/10/17 07:43:12;;;;;;;13.07;10.93;;;;;;;8.70;100.00;101783.22;5228780;28;20558;-79
2023/10/17 07:45:55;;;;;;;16.93;11.63;;;;;;;8.92;100.00;101804.16;5228338;28;20025;-79
2023/10/17 07:48:26;;;;;;;13.90;11.30;;;;;;;8.87;100.00;101787.81;5227819;28;20518;-79
2023/10/17 07:50:59;;;;;;;15.77;10.23;;;;;;;8.95;100.00;101790.97;5228204;28;20029;-79
2023/10/17 07:53:32;;;;;;;12.67;10.63;;;;;;;8.95;100.00;101774.47;5228929;28;20083;-79
2023/10/17 07:56:04;;;;;;;14.30;10.67;;;;;;;9.32;100.00;101845.34;5227682;28;20373;-79
2023/10/17 07:58:38;;;;;;;15.43;10.17;;;;;;;9.06;100.00;101814.09;5228680;28;20113;-79
2023/10/17 08:01:16;;;;;;;12.88;10.18;;;;;;;9.24;100.00;101853.50;5227720;28;20036;-79
2023/10/17 08:03:54;;;;;;;14.67;10.53;;;;;;;9.20;100.00;101825.78;5228006;28;20021;-79
2023/10/17 08:06:32;;;;;;;15.23;11.07;;;;;;;9.01;100.00;101815.16;5227743;28;20021;-79
2023/10/17 08:09:16;;;;;;;12.37;9.87;;;;;;;9.05;100.00;101806.31;5228210;28;20064;-79
2023/10/17 08:11:54;;;;;;;14.40;9.90;;;;;;;9.03;100.00;101797.69;5242925;28;20032;-79
2023/10/17 08:14:40;;;;;;;12.70;9.73;;;;;;;9.23;100.00;101811.75;5227011;28;20623;-80
2023/10/17 08:17:14;;;;;;;11.13;10.03;;;;;;;9.10;100.00;101783.47;5243855;28;20040;-80
2023/10/17 08:20:08;;;;;;;15.48;9.80;;;;;;;9.35;100.00;101800.81;5226953;28;20029;-80
2023/10/17 08:23:06;;;;;;;12.83;9.83;;;;;;;9.42;100.00;101794.44;5226883;28;20037;-80
2023/10/17 08:25:45;;;;;;;14.77;9.60;;;;;;;9.53;100.00;101795.78;5228297;28;20033;-80
2023/10/17 08:31:26;;;;;;;13.23;9.13;;;;;;;9.38;100.00;101766.72;5193410;28;20485;-80
2023/10/17 08:36:42;;;;;;;10.60;8.63;;;;;;;9.93;100.00;101830.75;5227659;28;20033;-81
2023/10/17 08:39:51;;;;;;;12.53;9.13;;;;;;;9.99;100.00;101824.44;5242834;28;20248;-81
2023/10/17 08:45:04;;;;;;;10.60;7.80;;;;;;;10.21;100.00;101796.50;5227116;28;20409;-80
2023/10/17 08:47:36;;;;;;;10.70;8.13;;;;;;;10.62;100.00;101825.28;5228087;28;20080;-80
2023/10/17 08:50:09;;;;;;;10.73;6.73;;;;;;;11.73;100.00;101779.97;5226391;28;20060;-80
2023/10/17 08:52:44;;;;;;;9.20;6.50;;;;;;;13.42;100.00;101758.00;5226106;28;20035;-81
2023/10/17 08:55:16;;;;;;;10.47;6.57;;;;;;;15.02;100.00;101766.97;5226368;28;20075;-80
2023/10/17 08:57:47;;;;;;;8.00;5.10;;;;;;;16.26;100.00;101780.88;5226308;28;20028;-81
2023/10/17 09:00:39;;;;;;;7.00;5.00;;;;;;;17.17;100.00;101788.66;5226348;28;20025;-81
2023/10/17 09:03:28;;;;;;;7.87;5.00;;;;;;;18.96;100.00;101815.81;5225857;28;20277;-81
2023/10/17 09:08:55;;;;;;;8.13;4.67;;;;;;;20.23;56.43;101819.66;5230743;28;20717;-81
2023/10/17 09:11:29;;;;;;;5.10;3.80;;;;;;;20.83;51.93;101794.09;5246895;28;20477;-81
2023/10/17 09:17:47;;;;;;;5.97;3.58;;;;;;;21.63;59.64;101837.66;5231436;28;19913;-81
2023/10/17 09:20:05;;;;;;;5.85;3.42;;;;;;;20.90;48.09;101784.59;5227247;28;20268;-81
2023/10/17 09:22:38;;;;;;;7.20;3.70;;;;;;;20.85;48.64;101780.66;5230779;28;20133;-81
2023/10/17 09:25:18;;;;;;;7.45;4.20;;;;;;;21.13;49.80;101773.72;5230402;28;20226;-81
2023/10/17 09:27:52;;;;;;;7.85;3.35;;;;;;;21.68;44.03;101779.41;5231476;28;20029;-81
2023/10/17 09:30:26;;;;;;;5.53;3.90;;;;;;;23.49;39.93;101832.69;5230147;28;20030;-81
2023/10/17 09:32:59;;;;;;;7.38;3.95;;;;;;;22.93;37.88;101785.56;5229292;28;20815;-82
2023/10/17 09:35:31;;;;;;;7.05;3.88;;;;;;;24.53;37.88;101842.72;5230625;28;20142;-81
2023/10/17 09:38:03;;;;;;;5.80;3.20;;;;;;;23.79;37.46;101793.97;5229710;28;20504;-81
2023/10/17 09:40:34;;;;;;;5.35;3.40;;;;;;;24.11;35.38;101825.59;5230763;28;20036;-81
2023/10/17 09:43:06;;;;;;;7.05;2.85;;;;;;;24.58;33.72;101835.03;5229818;28;20025;-82
2023/10/17 09:45:41;;;;;;;6.15;2.85;;;;;;;24.04;35.82;101838.75;5230333;28;20025;-82
2023/10/17 09:48:13;;;;;;;8.65;3.72;;;;;;;23.07;35.45;101824.25;5228752;28;20083;-82
2023/10/17 09:50:46;;;;;;;7.22;3.35;;;;;;;22.46;37.12;101785.50;5230330;28;20026;-82
2023/10/17 09:53:22;;;;;;;7.53;3.50;;;;;;;21.66;41.82;101821.38;5229953;28;20024;-82
2023/10/17 09:55:56;;;;;;;7.65;3.08;;;;;;;20.03;42.01;101816.03;5230609;28;20079;-81
2023/10/17 09:58:32;;;;;;;8.68;3.35;;;;;;;21.00;43.24;101821.91;5230361;28;20424;-81
2023/10/17 10:01:17;;;;;;;8.07;3.70;;;;;;;20.61;43.55;101829.75;5230004;28;20040;-81
2023/10/17 10:03:51;;;;;;;5.53;2.92;;;;;;;19.28;48.40;101846.94;5229159;28;20063;-82
2023/10/17 10:06:31;;;;;;;4.70;2.55;;;;;;;19.15;49.52;101788.66;5229876;28;20029;-81
2023/10/17 10:09:06;;;;;;;5.20;2.90;;;;;;;19.09;51.05;101828.97;5229316;28;20292;-81
2023/10/17 10:11:52;;;;;;;4.70;2.70;;;;;;;19.12;54.36;101854.44;5229672;28;20313;-81
2023/10/17 10:14:23;;;;;;;5.28;2.78;;;;;;;18.19;52.58;101835.00;5227487;28;20033;-81
2023/10/17 10:16:57;;;;;;;3.88;2.67;;;;;;;18.14;50.45;101827.41;5229781;28;20025;-81
2023/10/17 10:19:41;;;;;;;7.77;3.03;;;;;;;17.99;55.87;101839.16;5227410;28;20036;-81
2023/10/17 10:22:15;;;;;;;5.33;2.77;;;;;;;17.82;50.30;101800.69;5229210;28;20032;-81
2023/10/17 10:24:47;;;;;;;8.00;3.60;;;;;;;17.92;49.38;101830.00;5227521;28;20674;-81
2023/10/17 10:27:24;;;;;;;5.70;3.67;;;;;;;16.58;57.21;101761.94;5229613;28;20132;-81
2023/10/17 10:30:31;;;;;;;6.47;3.40;;;;;;;17.45;57.89;101802.50;5229091;28;20053;-81
2023/10/17 10:33:03;;;;;;;5.27;2.50;;;;;;;16.96;55.48;101769.84;5227868;28;20033;-81
2023/10/17 10:35:34;;;;;;;7.37;3.57;;;;;;;16.23;59.46;101774.03;5229407;28;20104;-81
2023/10/17 10:38:06;;;;;;;6.97;3.30;;;;;;;16.59;62.50;101810.34;5228428;28;20053;-81
2023/10/17 10:40:40;;;;;;;7.93;3.40;;;;;;;16.19;59.17;101760.19;5228727;28;20036;-81
2023/10/17 10:43:18;;;;;;;7.55;2.70;;;;;;;16.54;56.79;101763.09;5228514;28;20021;-81
2023/10/17 10:45:55;;;;;;;4.10;3.00;;;;;;;16.24;55.26;101782.78;5229014;28;20036;-81
2023/10/17 10:48:26;;;;;;;9.27;6.57;;;;;;;16.79;54.11;101767.47;5228391;28;20044;-81
2023/10/17 10:51:00;;;;;;;6.33;3.37;;;;;;;16.73;55.10;101788.22;5228528;28;20045;-81
2023/10/17 10:53:35;;;;;;;4.83;2.83;;;;;;;16.03;63.06;101748.97;5228541;28;20525;-81
2023/10/17 10:56:11;;;;;;;4.83;2.93;;;;;;;16.43;62.75;101756.78;5228166;28;20150;-81
2023/10/17 10:58:44;;;;;;;5.13;2.77;;;;;;;16.14;64.84;101788.72;5244284;28;20057;-81
2023/10/17 11:01:15;;;;;;;5.77;2.73;;;;;;;16.29;64.13;101784.16;5228066;28;20385;-81
2023/10/17 11:03:48;;;;;;;4.93;3.37;;;;;;;15.88;64.83;101727.94;5230679;28;20049;-81
2023/10/17 11:06:24;;;;;;;11.00;2.77;;;;;;;16.12;69.33;101748.34;5228204;28;20080;-82
2023/10/17 11:08:56;;;;;;;7.20;3.00;;;;;;;15.84;64.08;101732.56;5228696;28;20075;-81
2023/10/17 11:11:27;;;;;;;5.13;3.07;;;;;;;16.41;59.95;101732.22;5227831;28;20025;-81
2023/10/17 11:13:59;;;;;;;5.97;2.70;;;;;;;16.10;58.10;101742.31;5227450;28;20036;-81
2023/10/17 11:16:31;;;;;;;4.67;2.80;;;;;;;16.23;57.11;101759.97;5228753;28;20037;-81
2023/10/17 11:19:04;;;;;;;5.60;2.60;;;;;;;16.08;56.62;101734.50;5226584;28;20108;-81
2023/10/17 11:21:36;;;;;;;4.60;2.67;;;;;;;15.95;57.13;101700.09;5228063;28;20021;-81
2023/10/17 11:24:09;;;;;;;9.93;2.23;;;;;;;15.89;57.60;101716.41;5227743;28;20804;-81
2023/10/17 11:26:40;;;;;;;6.17;2.93;;;;;;;16.18;56.55;101702.16;5228422;28;20489;-81
2023/10/17 11:29:12;;;;;;;3.40;1.93;;;;;;;16.55;49.75;101696.88;5226272;28;20325;-80
2023/10/17 11:31:44;;;;;;;2.93;1.80;;;;;;;16.36;50.08;101686.78;5227476;28;20044;-81
2023/10/17 11:34:16;;;;;;;4.57;2.23;;;;;;;16.08;52.39;101691.38;5226582;28;20025;-81
2023/10/17 11:37:02;;;;;;;3.80;2.17;;;;;;;16.31;52.55;101741.75;5243395;28;20025;-81
2023/10/17 11:39:46;;;;;;;5.30;2.30;;;;;;;16.26;53.45;101709.53;5227466;28;20047;-81
2023/10/17 11:42:34;;;;;;;6.07;2.60;;;;;;;16.27;53.32;101698.84;5227715;28;20028;-81
2023/10/17 11:45:19;;;;;;;4.27;2.40;;;;;;;15.95;53.37;101672.88;5227561;28;20029;-81
2023/10/17 11:47:55;;;;;;;4.33;2.30;;;;;;;16.02;53.51;101691.81;5226536;28;20344;-81
2023/10/17 11:50:35;;;;;;;6.83;2.20;;;;;;;16.18;52.43;101710.91;5227231;28;20759;-81
2023/10/17 11:53:12;;;;;;;6.90;2.60;;;;;;;15.76;52.83;101674.13;5241983;28;20112;-81
2023/10/17 11:55:47;;;;;;;3.50;1.93;;;;;;;16.22;49.50;101693.03;5243288;28;20056;-81
2023/10/17 11:58:29;;;;;;;5.00;2.27;;;;;;;16.41;51.89;101715.53;5226814;28;20029;-81
2023/10/17 12:01:00;;;;;;;7.10;2.60;;;;;;;15.97;57.31;101705.28;5227520;28;20075;-81
2023/10/17 12:03:31;;;;;;;5.07;2.37;;;;;;;16.06;55.90;101709.97;5235382;28;20017;-81
2023/10/17 12:06:14;;;;;;;2.93;1.87;;;;;;;16.03;53.98;101710.19;5243590;28;20041;-80
2023/10/17 12:08:46;;;;;;;4.07;2.30;;;;;;;15.79;53.15;101712.69;5242475;28;20163;-80
2023/10/17 12:11:17;;;;;;;3.57;2.50;;;;;;;16.07;49.25;101687.03;5254837;28;20383;-81
2023/10/17 12:13:48;;;;;;;3.43;1.77;;;;;;;15.89;52.43;101692.63;5237243;28;20080;-81
2023/10/17 12:16:23;;;;;;;4.10;2.40;;;;;;;15.37;56.32;101642.44;5233978;28;20057;-80
2023/10/17 12:18:55;;;;;;;5.07;2.13;;;;;;;15.63;56.71;101662.72;5227293;28;20246;-81
2023/10/17 12:21:28;;;;;;;4.70;2.80;;;;;;;15.56;58.26;101636.75;5227249;28;20481;-81
2023/10/17 12:24:00;;;;;;;5.23;2.53;;;;;;;15.74;62.16;101699.81;5227710;28;20412;-81
2023/10/17 12:26:32;;;;;;;6.50;2.63;;;;;;;15.41;69.40;101643.91;5226946;28;20101;-81
2023/10/17 12:29:03;;;;;;;5.87;2.57;;;;;;;15.72;65.08;101641.84;5227068;28;20112;-80
2023/10/17 12:31:34;;;;;;;5.37;2.93;;;;;;;15.62;65.40;101650.47;5226400;28;20385;-80
2023/10/17 12:34:10;;;;;;;6.73;3.10;;;;;;;15.63;64.76;101616.06;5225999;28;20028;-80
2023/10/17 12:36:41;;;;;;;5.30;2.40;;;;;;;15.51;65.31;101624.81;5242043;28;20030;-80
2023/10/17 12:39:16;;;;;;;8.10;2.63;;;;;;;15.39;69.87;101616.78;5226769;28;20162;-81
2023/10/17 12:41:48;;;;;;;4.40;2.87;;;;;;;15.68;69.01;101613.94;5225190;28;20037;-80
2023/10/17 12:44:20;;;;;;;8.90;4.37;;;;;;;15.51;63.53;101635.38;5226563;28;20256;-79
2023/10/17 12:46:52;;;;;;;6.00;3.77;;;;;;;15.71;64.66;101634.84;5227103;28;20108;-81
2023/10/17 12:49:24;;;;;;;4.50;2.87;;;;;;;15.27;61.80;101605.28;5224158;28;20029;-81
2023/10/17 12:51:56;;;;;;;4.33;2.47;;;;;;;15.38;62.93;101586.06;5227545;28;20475;-81
2023/10/17 12:54:28;;;;;;;3.87;2.70;;;;;;;15.32;59.25;101583.84;5224859;28;20034;-81
2023/10/17 12:56:59;;;;;;;5.50;2.60;;;;;;;15.16;66.31;101576.97;5226714;28;20091;-81
2023/10/17 12:59:32;;;;;;;5.67;2.80;;;;;;;15.37;66.42;101576.47;5226653;28;20033;-81
2023/10/17 13:02:03;;;;;;;22.70;4.50;;;;;;;15.05;66.32;101555.75;5224903;28;20025;-81
2023/10/17 13:04:35;;;;;;;6.43;2.77;;;;;;;15.24;64.92;101568.53;5225761;28;20422;-81
2023/10/17 13:07:06;;;;;;;4.33;2.23;;;;;;;15.41;66.87;101617.50;5240939;28;20045;-81
2023/10/17 13:09:38;;;;;;;4.50;2.70;;;;;;;15.12;64.09;101583.41;5227549;28;20033;-81
2023/10/17 13:12:09;;;;;;;4.40;2.60;;;;;;;14.98;64.65;101557.94;5226156;28;20507;-81
2023/10/17 13:14:40;;;;;;;5.90;2.57;;;;;;;15.10;63.72;101586.16;5227067;28;20060;-81
2023/10/17 13:17:13;;;;;;;8.63;2.93;;;;;;;14.87;67.30;101587.69;5225914;28;20025;-81
2023/10/17 13:19:48;;;;;;;4.60;2.27;;;;;;;14.73;63.31;101541.94;5241989;28;20024;-81
2023/10/17 13:22:20;;;;;;;5.40;2.90;;;;;;;14.99;66.18;101597.41;5226232;28;20384;-81
2023/10/17 13:24:51;;;;;;;4.63;2.67;;;;;;;14.89;65.83;101575.22;5225998;28;20369;-81
2023/10/17 13:27:22;;;;;;;7.40;2.67;;;;;;;14.95;65.74;101589.81;5241861;28;20256;-81
2023/10/17 13:29:54;;;;;;;7.17;3.07;;;;;;;15.11;67.71;101611.56;5226290;28;20044;-81
2023/10/17 13:32:26;;;;;;;8.40;3.33;;;;;;;14.73;64.50;101565.69;5225024;28;20022;-81
2023/10/17 13:34:57;;;;;;;4.17;2.57;;;;;;;14.73;66.41;101589.41;5226569;28;20623;-81
2023/10/17 13:37:28;;;;;;;7.00;3.37;;;;;;;14.64;68.15;101558.41;5226183;28;20490;-81
2023/10/17 13:40:01;;;;;;;3.90;2.93;;;;;;;14.86;67.07;101592.13;5226364;28;20025;-81
2023/10/17 13:42:32;;;;;;;5.30;3.23;;;;;;;14.94;63.39;101559.94;5226123;28;20491;-81
2023/10/17 13:45:05;;;;;;;9.37;3.83;;;;;;;14.98;63.25;101540.34;5226277;28;20108;-82
2023/10/17 13:47:37;;;;;;;6.17;3.33;;;;;;;14.96;64.67;101575.66;5225463;28;20381;-81
2023/10/17 13:50:13;;;;;;;3.90;3.07;;;;;;;14.92;63.73;101580.34;5226725;28;20214;-81
2023/10/17 13:52:46;;;;;;;8.63;3.33;;;;;;;14.85;61.75;101550.84;5225922;28;20477;-81
2023/10/17 13:55:25;;;;;;;5.60;3.20;;;;;;;14.72;63.52;101548.19;5229305;28;20056;-81
2023/10/17 13:58:01;;;;;;;5.03;2.60;;;;;;;14.66;62.85;101527.47;5229525;28;20052;-82
2023/10/17 14:00:46;;;;;;;7.13;3.17;;;;;;;14.74;65.73;101521.72;5229608;28;20060;-81
2023/10/17 14:03:19;;;;;;;7.83;2.87;;;;;;;15.12;66.60;101570.22;5228252;28;20420;-81
2023/10/17 14:05:53;;;;;;;8.33;3.17;;;;;;;15.10;64.65;101558.91;5229697;28;20366;-81